Time;durP1;ratioP1;P1;durP2;ratioP2;P2;SDS_P1;SDS_P2;PMS_P1;PMS_P2;Temp;Humidity;BMP_temperature;BMP_pressure;BME280_temperature;BME280_humidity;BME280_pressure;Samples;Min_cycle;Max_cycle;Signal;HPM_P1;HPM_P2
2023/03/29 00:00:27;;;;;;;0.60;0.40;;;;;;;;;;4999811;28;20508;-69
2023/03/29 00:02:55;;;;;;;0.60;0.40;;;;;;;;;;5001722;28;20449;-69
2023/03/29 00:05:24;;;;;;;0.60;0.40;;;;;;;;;;4993775;28;20453;-69
2023/03/29 00:07:52;;;;;;;0.60;0.40;;;;;;;;;;4993743;28;20933;-70
2023/03/29 00:10:21;;;;;;;0.60;0.40;;;;;;;;;;4992597;28;20477;-69
2023/03/29 00:12:50;;;;;;;0.60;0.40;;;;;;;;;;4984694;28;20469;-69
2023/03/29 00:15:18;;;;;;;0.70;0.70;;;;;;;;;;4973052;28;20450;-68
2023/03/29 00:17:45;;;;;;;0.60;0.40;;;;;;;;;;4973176;28;20461;-69
2023/03/29 00:20:12;;;;;;;0.60;0.47;;;;;;;;;;4974004;28;20482;-69
2023/03/29 00:22:40;;;;;;;0.60;0.40;;;;;;;;;;4990074;28;20547;-69
2023/03/29 00:25:08;;;;;;;0.60;0.40;;;;;;;;;;4993001;28;20460;-70
2023/03/29 00:27:35;;;;;;;0.70;0.70;;;;;;;;;;4992460;28;20441;-70
2023/03/29 00:30:04;;;;;;;0.60;0.40;;;;;;;;;;4993140;28;20461;-69
2023/03/29 00:32:31;;;;;;;0.60;0.40;;;;;;;;;;4992661;28;20441;-69
2023/03/29 00:34:59;;;;;;;0.60;0.40;;;;;;;;;;4992658;28;20950;-69
2023/03/29 00:37:28;;;;;;;0.90;0.90;;;;;;;;;;4992523;28;20485;-70
2023/03/29 00:39:55;;;;;;;0.73;0.73;;;;;;;;;;4979363;28;20870;-69
2023/03/29 00:42:23;;;;;;;0.60;0.40;;;;;;;;;;4972432;28;20458;-69
2023/03/29 00:44:58;;;;;;;0.63;0.50;;;;;;;;;;4973091;28;20442;-69
2023/03/29 00:47:29;;;;;;;0.60;0.40;;;;;;;;;;4972806;28;20477;-70
2023/03/29 00:50:00;;;;;;;0.70;0.50;;;;;;;;;;4973718;28;20433;-70
2023/03/29 00:52:29;;;;;;;0.60;0.40;;;;;;;;;;4972994;28;20489;-70
2023/03/29 00:54:58;;;;;;;0.60;0.40;;;;;;;;;;4972312;28;20512;-68
2023/03/29 00:57:27;;;;;;;0.60;0.40;;;;;;;;;;4972520;28;20937;-68
2023/03/29 00:59:55;;;;;;;0.60;0.40;;;;;;;;;;4972908;28;20465;-68
2023/03/29 01:02:24;;;;;;;0.60;0.40;;;;;;;;;;4972230;28;20952;-68
2023/03/29 01:04:56;;;;;;;0.70;0.50;;;;;;;;;;4972997;28;20462;-68
2023/03/29 01:07:25;;;;;;;0.60;0.40;;;;;;;;;;4972403;28;20446;-68
2023/03/29 01:09:54;;;;;;;0.80;0.80;;;;;;;;;;4973321;28;20462;-68
2023/03/29 01:12:23;;;;;;;0.60;0.50;;;;;;;;;;4970900;28;20476;-68
2023/03/29 01:14:53;;;;;;;0.60;0.50;;;;;;;;;;4972904;28;20438;-68
2023/03/29 01:17:20;;;;;;;0.80;0.73;;;;;;;;;;4971959;28;20452;-68
2023/03/29 01:19:50;;;;;;;0.60;0.40;;;;;;;;;;4972652;28;20450;-68
2023/03/29 01:22:27;;;;;;;0.60;0.40;;;;;;;;;;4971940;28;20488;-67
2023/03/29 01:24:59;;;;;;;0.80;0.50;;;;;;;;;;4972799;28;20859;-68
2023/03/29 01:27:39;;;;;;;0.60;0.40;;;;;;;;;;4971845;28;20930;-68
2023/03/29 01:30:09;;;;;;;0.70;0.60;;;;;;;;;;4987092;28;20465;-68
2023/03/29 01:32:40;;;;;;;0.90;0.60;;;;;;;;;;4991217;28;20449;-68
2023/03/29 01:35:10;;;;;;;0.70;0.50;;;;;;;;;;4991903;28;20880;-68
2023/03/29 01:37:38;;;;;;;1.10;1.00;;;;;;;;;;4991332;28;20692;-68
2023/03/29 01:40:06;;;;;;;0.93;0.80;;;;;;;;;;4992009;28;20805;-68
2023/03/29 01:42:41;;;;;;;0.60;0.40;;;;;;;;;;4984215;28;20548;-68
2023/03/29 01:45:16;;;;;;;0.60;0.40;;;;;;;;;;4962894;28;20463;-68
2023/03/29 01:47:46;;;;;;;0.60;0.40;;;;;;;;;;4953305;28;20458;-68
2023/03/29 01:50:16;;;;;;;0.60;0.40;;;;;;;;;;4953857;28;20451;-68
2023/03/29 01:52:46;;;;;;;1.33;1.23;;;;;;;;;;4985489;28;20469;-68
2023/03/29 01:55:16;;;;;;;0.60;0.40;;;;;;;;;;4991746;28;20453;-68
2023/03/29 01:57:44;;;;;;;0.60;0.50;;;;;;;;;;4991673;28;20457;-68
2023/03/29 02:00:15;;;;;;;0.70;0.47;;;;;;;;;;4991831;28;20888;-68
2023/03/29 02:02:44;;;;;;;0.63;0.47;;;;;;;;;;4991323;28;20424;-68
2023/03/29 02:05:13;;;;;;;5.40;1.07;;;;;;;;;;4991098;28;20453;-68
2023/03/29 02:07:40;;;;;;;1.73;0.50;;;;;;;;;;4988840;28;20465;-68
2023/03/29 02:10:10;;;;;;;0.60;0.40;;;;;;;;;;4991072;28;20535;-68
2023/03/29 02:12:37;;;;;;;1.57;0.87;;;;;;;;;;4983309;28;20813;-67
2023/03/29 02:15:05;;;;;;;0.60;0.40;;;;;;;;;;4972164;28;20457;-69
2023/03/29 02:17:34;;;;;;;0.60;0.40;;;;;;;;;;4971382;28;20438;-68
2023/03/29 02:20:06;;;;;;;0.70;0.60;;;;;;;;;;4971805;28;20453;-68
2023/03/29 02:22:37;;;;;;;0.60;0.40;;;;;;;;;;4971576;28;21038;-68
2023/03/29 02:25:07;;;;;;;0.60;0.40;;;;;;;;;;4963037;28;20520;-68
2023/03/29 02:27:36;;;;;;;0.60;0.40;;;;;;;;;;4952690;28;20467;-68
2023/03/29 02:30:03;;;;;;;0.60;0.40;;;;;;;;;;4956316;28;20864;-68
2023/03/29 02:32:34;;;;;;;0.60;0.40;;;;;;;;;;4955772;28;20478;-69
2023/03/29 02:35:05;;;;;;;0.60;0.40;;;;;;;;;;4955155;28;20445;-68
2023/03/29 02:37:35;;;;;;;0.70;0.60;;;;;;;;;;4953954;28;20502;-68
2023/03/29 02:40:07;;;;;;;0.97;0.70;;;;;;;;;;4965440;28;20461;-68
2023/03/29 02:42:35;;;;;;;0.60;0.40;;;;;;;;;;4987188;28;20501;-68
2023/03/29 02:45:03;;;;;;;0.60;0.53;;;;;;;;;;4975397;28;20529;-68
2023/03/29 02:47:32;;;;;;;0.60;0.50;;;;;;;;;;4974883;28;20489;-68
2023/03/29 02:49:59;;;;;;;0.60;0.40;;;;;;;;;;4975345;28;20940;-68
2023/03/29 02:52:32;;;;;;;0.77;0.53;;;;;;;;;;4974787;28;20957;-68
2023/03/29 02:55:01;;;;;;;0.60;0.40;;;;;;;;;;4974251;28;20448;-68
2023/03/29 02:57:31;;;;;;;0.60;0.40;;;;;;;;;;4974956;28;20855;-68
2023/03/29 02:59:59;;;;;;;0.60;0.50;;;;;;;;;;4974976;28;20941;-68
2023/03/29 03:02:28;;;;;;;0.70;0.50;;;;;;;;;;4974774;28;20485;-69
2023/03/29 03:04:56;;;;;;;0.60;0.40;;;;;;;;;;4975058;28;20464;-68
2023/03/29 03:07:24;;;;;;;0.60;0.40;;;;;;;;;;4974493;28;20921;-68
2023/03/29 03:09:52;;;;;;;2.40;1.23;;;;;;;;;;4975038;28;21007;-68
2023/03/29 03:12:19;;;;;;;0.60;0.47;;;;;;;;;;4979359;28;20466;-68
2023/03/29 03:14:47;;;;;;;0.60;0.50;;;;;;;;;;4974848;28;20450;-70
2023/03/29 03:17:14;;;;;;;0.70;0.70;;;;;;;;;;4974848;28;20886;-70
2023/03/29 03:19:41;;;;;;;0.60;0.40;;;;;;;;;;4973979;28;20450;-67
2023/03/29 03:22:08;;;;;;;0.77;0.60;;;;;;;;;;4974751;28;20989;-70
2023/03/29 03:24:35;;;;;;;0.60;0.40;;;;;;;;;;4974480;28;20481;-69
2023/03/29 03:27:05;;;;;;;0.60;0.40;;;;;;;;;;4975002;28;20454;-69
2023/03/29 03:29:32;;;;;;;0.60;0.50;;;;;;;;;;4983351;28;20545;-69
2023/03/29 03:31:59;;;;;;;0.60;0.40;;;;;;;;;;4994027;28;20461;-69
2023/03/29 03:34:26;;;;;;;0.70;0.60;;;;;;;;;;4993384;28;20448;-69
2023/03/29 03:36:54;;;;;;;0.60;0.40;;;;;;;;;;4994356;28;20560;-69
2023/03/29 03:39:21;;;;;;;0.60;0.40;;;;;;;;;;4993309;28;20445;-70
2023/03/29 03:41:48;;;;;;;0.60;0.60;;;;;;;;;;4993210;28;20503;-69
2023/03/29 03:44:17;;;;;;;0.60;0.40;;;;;;;;;;4974541;28;20478;-70
2023/03/29 03:46:44;;;;;;;0.60;0.50;;;;;;;;;;4982696;28;20809;-69
2023/03/29 03:49:11;;;;;;;0.70;0.50;;;;;;;;;;4993619;28;20485;-70
2023/03/29 03:51:40;;;;;;;0.60;0.40;;;;;;;;;;4992737;28;20527;-69
2023/03/29 03:54:07;;;;;;;0.70;0.53;;;;;;;;;;4993390;28;20536;-69
2023/03/29 03:56:34;;;;;;;0.60;0.40;;;;;;;;;;4993064;28;20456;-70
2023/03/29 03:59:02;;;;;;;0.60;0.40;;;;;;;;;;4993916;28;20796;-69
2023/03/29 04:01:30;;;;;;;0.60;0.40;;;;;;;;;;4993116;28;20488;-70
2023/03/29 04:03:57;;;;;;;0.60;0.40;;;;;;;;;;4991664;28;20465;-69
2023/03/29 04:06:24;;;;;;;0.60;0.40;;;;;;;;;;4993400;28;20765;-69
2023/03/29 04:08:52;;;;;;;0.60;0.40;;;;;;;;;;4993700;28;20456;-69
2023/03/29 04:11:19;;;;;;;0.70;0.50;;;;;;;;;;4992686;28;20461;-69
2023/03/29 04:13:47;;;;;;;0.60;0.43;;;;;;;;;;4977028;28;20814;-69
2023/03/29 04:16:14;;;;;;;0.60;0.40;;;;;;;;;;4973998;28;20481;-69
2023/03/29 04:18:42;;;;;;;0.60;0.40;;;;;;;;;;4972155;28;20442;-69
2023/03/29 04:21:09;;;;;;;0.60;0.40;;;;;;;;;;4973644;28;20964;-70
2023/03/29 04:23:37;;;;;;;0.60;0.40;;;;;;;;;;4973394;28;21258;-69
2023/03/29 04:26:05;;;;;;;0.60;0.40;;;;;;;;;;4973924;28;20804;-69
2023/03/29 04:28:32;;;;;;;0.60;0.40;;;;;;;;;;4973002;28;20442;-70
2023/03/29 04:30:59;;;;;;;1.07;0.97;;;;;;;;;;4973389;28;20925;-70
2023/03/29 04:33:28;;;;;;;0.60;0.40;;;;;;;;;;4973166;28;20456;-70
2023/03/29 04:35:57;;;;;;;0.60;0.40;;;;;;;;;;4979473;28;20463;-69
2023/03/29 04:38:25;;;;;;;0.70;0.53;;;;;;;;;;4992585;28;20445;-69
2023/03/29 04:40:53;;;;;;;0.60;0.40;;;;;;;;;;4993018;28;20917;-69
2023/03/29 04:43:21;;;;;;;0.60;0.40;;;;;;;;;;4978794;28;20599;-69
2023/03/29 04:45:48;;;;;;;0.80;0.60;;;;;;;;;;4973086;28;20465;-69
2023/03/29 04:48:16;;;;;;;0.60;0.40;;;;;;;;;;4973156;28;20456;-70
2023/03/29 04:50:46;;;;;;;0.60;0.40;;;;;;;;;;4971613;28;20466;-69
2023/03/29 04:53:15;;;;;;;0.60;0.40;;;;;;;;;;4992165;28;20457;-69
2023/03/29 04:55:43;;;;;;;0.60;0.50;;;;;;;;;;4992534;28;20437;-70
2023/03/29 04:58:10;;;;;;;1.00;0.60;;;;;;;;;;4992656;28;20460;-69
2023/03/29 05:00:37;;;;;;;0.60;0.40;;;;;;;;;;4992835;28;20547;-71
2023/03/29 05:03:05;;;;;;;0.80;0.67;;;;;;;;;;4997187;28;20469;-70
2023/03/29 05:05:32;;;;;;;0.60;0.40;;;;;;;;;;4996073;28;21018;-70
2023/03/29 05:08:00;;;;;;;0.60;0.40;;;;;;;;;;4994596;28;20958;-69
2023/03/29 05:10:28;;;;;;;0.70;0.50;;;;;;;;;;4973958;28;20472;-69
2023/03/29 05:12:56;;;;;;;0.60;0.40;;;;;;;;;;4973232;28;20472;-70
2023/03/29 05:15:23;;;;;;;0.60;0.50;;;;;;;;;;4972133;28;20453;-69
2023/03/29 05:17:50;;;;;;;0.70;0.70;;;;;;;;;;4972701;28;20451;-70
2023/03/29 05:20:17;;;;;;;0.60;0.40;;;;;;;;;;4972250;28;20465;-68
2023/03/29 05:22:44;;;;;;;0.60;0.40;;;;;;;;;;4972626;28;20510;-69
2023/03/29 05:25:12;;;;;;;0.60;0.40;;;;;;;;;;4983999;28;20540;-70
2023/03/29 05:27:41;;;;;;;0.60;0.40;;;;;;;;;;4991406;28;20468;-69
2023/03/29 05:30:09;;;;;;;1.50;1.37;;;;;;;;;;4992180;28;20510;-69
2023/03/29 05:32:37;;;;;;;0.60;0.47;;;;;;;;;;4991540;28;20892;-70
2023/03/29 05:35:04;;;;;;;0.60;0.40;;;;;;;;;;4991998;28;20441;-69
2023/03/29 05:37:33;;;;;;;0.60;0.40;;;;;;;;;;4991363;28;20940;-69
2023/03/29 05:40:00;;;;;;;0.60;0.40;;;;;;;;;;4988868;28;20944;-69
2023/03/29 05:42:27;;;;;;;0.60;0.50;;;;;;;;;;4971655;28;20552;-69
2023/03/29 05:44:56;;;;;;;0.60;0.50;;;;;;;;;;4972602;28;20806;-70
2023/03/29 05:47:23;;;;;;;0.60;0.40;;;;;;;;;;4971760;28;20445;-69
2023/03/29 05:49:51;;;;;;;0.70;0.50;;;;;;;;;;4972042;28;20446;-69
2023/03/29 05:52:18;;;;;;;0.60;0.40;;;;;;;;;;4971557;28;20450;-69
2023/03/29 05:54:45;;;;;;;0.60;0.40;;;;;;;;;;4972250;28;20458;-69
2023/03/29 05:57:12;;;;;;;0.73;0.70;;;;;;;;;;4983972;28;20483;-68
2023/03/29 05:59:41;;;;;;;0.60;0.40;;;;;;;;;;4991141;28;20449;-68
2023/03/29 06:02:10;;;;;;;0.70;0.70;;;;;;;;;;4976423;28;20486;-67
2023/03/29 06:04:37;;;;;;;0.60;0.40;;;;;;;;;;4971403;28;20442;-69
2023/03/29 06:07:04;;;;;;;0.60;0.40;;;;;;;;;;4972002;28;20565;-68
2023/03/29 06:09:32;;;;;;;0.60;0.40;;;;;;;;;;4971497;28;20446;-68
2023/03/29 06:12:00;;;;;;;3.07;2.80;;;;;;;;;;4970684;28;20517;-68
2023/03/29 06:14:27;;;;;;;0.93;0.50;;;;;;;;;;4971340;28;20905;-68
2023/03/29 06:16:55;;;;;;;0.60;0.40;;;;;;;;;;4975378;28;20654;-68
2023/03/29 06:19:24;;;;;;;0.60;0.40;;;;;;;;;;4973404;28;20458;-68
2023/03/29 06:21:52;;;;;;;0.60;0.40;;;;;;;;;;4995695;28;20453;-68
2023/03/29 06:24:19;;;;;;;0.60;0.40;;;;;;;;;;4994812;28;20449;-67
2023/03/29 06:26:46;;;;;;;0.83;0.73;;;;;;;;;;4991519;28;20488;-68
2023/03/29 06:29:13;;;;;;;0.60;0.40;;;;;;;;;;4995593;28;20449;-68
2023/03/29 06:31:41;;;;;;;0.60;0.40;;;;;;;;;;4994638;28;20452;-68
2023/03/29 06:34:08;;;;;;;0.60;0.40;;;;;;;;;;4995047;28;20460;-68
2023/03/29 06:36:36;;;;;;;0.60;0.40;;;;;;;;;;4994400;28;20453;-68
2023/03/29 06:39:07;;;;;;;0.70;0.60;;;;;;;;;;4995338;28;20547;-68
2023/03/29 06:41:34;;;;;;;0.70;0.50;;;;;;;;;;4994921;28;20433;-70
2023/03/29 06:44:02;;;;;;;0.60;0.40;;;;;;;;;;4975180;28;21077;-69
2023/03/29 06:46:30;;;;;;;0.60;0.40;;;;;;;;;;4974867;28;20500;-69
2023/03/29 06:48:57;;;;;;;1.00;0.90;;;;;;;;;;4975597;28;20810;-68
2023/03/29 06:51:24;;;;;;;0.60;0.40;;;;;;;;;;4974816;28;20450;-69
2023/03/29 06:53:53;;;;;;;0.60;0.50;;;;;;;;;;4974702;28;20454;-69
2023/03/29 06:56:21;;;;;;;0.60;0.60;;;;;;;;;;4974302;28;20450;-68
2023/03/29 06:58:48;;;;;;;0.60;0.40;;;;;;;;;;4974626;28;20545;-68
2023/03/29 07:01:15;;;;;;;0.60;0.50;;;;;;;;;;4986777;28;20462;-68
2023/03/29 07:03:44;;;;;;;0.80;0.77;;;;;;;;;;4993552;28;20488;-69
2023/03/29 07:06:13;;;;;;;0.60;0.50;;;;;;;;;;4994703;28;20539;-68
2023/03/29 07:08:43;;;;;;;0.70;0.70;;;;;;;;;;4986823;28;20545;-68
2023/03/29 07:11:13;;;;;;;0.60;0.50;;;;;;;;;;4975288;28;20446;-68
2023/03/29 07:13:41;;;;;;;7.40;1.07;;;;;;;;;;4974098;28;20508;-68
2023/03/29 07:16:11;;;;;;;0.97;0.57;;;;;;;;;;4975547;28;20782;-69
2023/03/29 07:18:38;;;;;;;0.80;0.80;;;;;;;;;;4974194;28;20485;-68
2023/03/29 07:21:06;;;;;;;0.70;0.50;;;;;;;;;;4974897;28;20446;-68
2023/03/29 07:23:33;;;;;;;0.70;0.50;;;;;;;;;;4975328;28;20488;-68
2023/03/29 07:26:01;;;;;;;0.93;0.93;;;;;;;;;;4974071;28;20466;-68
2023/03/29 07:28:29;;;;;;;0.97;0.87;;;;;;;;;;4973039;28;21044;-69
2023/03/29 07:31:03;;;;;;;0.70;0.60;;;;;;;;;;4975479;28;21024;-68
2023/03/29 07:33:30;;;;;;;0.60;0.40;;;;;;;;;;4993731;28;20453;-68
2023/03/29 07:35:57;;;;;;;0.60;0.40;;;;;;;;;;4994189;28;20803;-68
2023/03/29 07:38:25;;;;;;;0.60;0.50;;;;;;;;;;4993688;28;20544;-68
2023/03/29 07:40:53;;;;;;;0.60;0.40;;;;;;;;;;4994035;28;20444;-68
2023/03/29 07:43:20;;;;;;;0.60;0.50;;;;;;;;;;4980102;28;20498;-68
2023/03/29 07:45:48;;;;;;;0.63;0.50;;;;;;;;;;4974909;28;20450;-69
2023/03/29 07:48:16;;;;;;;1.20;0.73;;;;;;;;;;4986095;28;20492;-69
2023/03/29 07:50:43;;;;;;;0.60;0.40;;;;;;;;;;4993861;28;20967;-69
2023/03/29 07:53:11;;;;;;;0.80;0.70;;;;;;;;;;4994153;28;20460;-69
2023/03/29 07:55:41;;;;;;;0.73;0.50;;;;;;;;;;4988776;28;20467;-69
2023/03/29 07:58:08;;;;;;;0.60;0.40;;;;;;;;;;4995878;28;20483;-68
2023/03/29 08:00:35;;;;;;;1.20;0.60;;;;;;;;;;4986878;28;20479;-68
2023/03/29 08:03:03;;;;;;;0.50;0.40;;;;;;;;;;4974855;28;20508;-69
2023/03/29 08:05:31;;;;;;;0.60;0.40;;;;;;;;;;4974661;28;20453;-69
2023/03/29 08:07:58;;;;;;;0.57;0.50;;;;;;;;;;4974072;28;20454;-68
2023/03/29 08:10:26;;;;;;;0.50;0.40;;;;;;;;;;4972513;28;20470;-68
2023/03/29 08:12:53;;;;;;;0.50;0.40;;;;;;;;;;4973826;28;20457;-69
2023/03/29 08:15:21;;;;;;;0.63;0.53;;;;;;;;;;4973275;28;20528;-68
2023/03/29 08:17:48;;;;;;;0.60;0.60;;;;;;;;;;4973962;28;20458;-68
2023/03/29 08:20:17;;;;;;;0.60;0.50;;;;;;;;;;4973896;28;20464;-69
2023/03/29 08:22:44;;;;;;;0.60;0.43;;;;;;;;;;4973886;28;20485;-69
2023/03/29 08:25:11;;;;;;;0.50;0.40;;;;;;;;;;4973845;28;20458;-69
2023/03/29 08:27:39;;;;;;;0.60;0.40;;;;;;;;;;4971952;28;20464;-69
2023/03/29 08:30:08;;;;;;;0.60;0.50;;;;;;;;;;4973724;28;20446;-69
2023/03/29 08:32:35;;;;;;;0.50;0.40;;;;;;;;;;4973194;28;20453;-69
2023/03/29 08:35:03;;;;;;;0.50;0.40;;;;;;;;;;4973544;28;20500;-69
2023/03/29 08:37:32;;;;;;;0.80;0.77;;;;;;;;;;4972802;28;20500;-69
2023/03/29 08:39:59;;;;;;;2.00;1.43;;;;;;;;;;4971766;28;20492;-69
2023/03/29 08:42:41;;;;;;;0.60;0.40;;;;;;;;;;4970403;28;20466;-68
2023/03/29 08:45:12;;;;;;;0.83;0.50;;;;;;;;;;4973477;28;20537;-69
2023/03/29 08:47:45;;;;;;;0.70;0.60;;;;;;;;;;4972681;28;20452;-70
2023/03/29 08:50:13;;;;;;;0.50;0.40;;;;;;;;;;4973021;28;20446;-69
2023/03/29 08:52:43;;;;;;;0.57;0.43;;;;;;;;;;4972482;28;20979;-68
2023/03/29 08:55:14;;;;;;;0.50;0.40;;;;;;;;;;4973360;28;20434;-69
2023/03/29 08:57:45;;;;;;;0.60;0.50;;;;;;;;;;4984392;28;20461;-68
2023/03/29 09:00:18;;;;;;;0.50;0.40;;;;;;;;;;4992459;28;20905;-68
2023/03/29 09:02:45;;;;;;;0.60;0.50;;;;;;;;;;4992390;28;20943;-68
2023/03/29 09:05:19;;;;;;;0.97;0.60;;;;;;;;;;4984583;28;20476;-69
2023/03/29 09:07:47;;;;;;;0.90;0.50;;;;;;;;;;4992570;28;20530;-68
2023/03/29 09:10:17;;;;;;;0.87;0.50;;;;;;;;;;4992272;28;20941;-69
2023/03/29 09:13:00;;;;;;;0.60;0.43;;;;;;;;;;4984151;28;20462;-69
2023/03/29 09:15:29;;;;;;;0.80;0.47;;;;;;;;;;4972454;28;20434;-69
2023/03/29 09:18:01;;;;;;;0.60;0.50;;;;;;;;;;4972682;28;20477;-68
2023/03/29 09:20:34;;;;;;;0.60;0.60;;;;;;;;;;4971931;28;20447;-69
2023/03/29 09:23:09;;;;;;;0.60;0.40;;;;;;;;;;4989218;28;20488;-69
2023/03/29 09:25:43;;;;;;;0.60;0.40;;;;;;;;;;4991400;28;20932;-69
2023/03/29 09:28:14;;;;;;;0.60;0.57;;;;;;;;;;4992353;28;20523;-68
2023/03/29 09:30:42;;;;;;;0.50;0.40;;;;;;;;;;4991415;28;20441;-69
2023/03/29 09:33:13;;;;;;;0.60;0.57;;;;;;;;;;4991813;28;20449;-69
2023/03/29 09:35:42;;;;;;;0.50;0.40;;;;;;;;;;4991313;28;20511;-69
2023/03/29 09:38:12;;;;;;;0.60;0.40;;;;;;;;;;4989940;28;20956;-69
2023/03/29 09:40:42;;;;;;;0.60;0.50;;;;;;;;;;4972175;28;20430;-69
2023/03/29 09:43:12;;;;;;;0.60;0.50;;;;;;;;;;4971133;28;20504;-68
2023/03/29 09:45:40;;;;;;;0.50;0.40;;;;;;;;;;4981439;28;20472;-68
2023/03/29 09:48:12;;;;;;;0.60;0.40;;;;;;;;;;4991757;28;20460;-69
2023/03/29 09:50:41;;;;;;;0.50;0.40;;;;;;;;;;4990220;28;20438;-69
2023/03/29 09:53:08;;;;;;;0.63;0.60;;;;;;;;;;4991875;28;20457;-68
2023/03/29 09:55:39;;;;;;;0.50;0.40;;;;;;;;;;4991381;28;20471;-69
2023/03/29 09:58:12;;;;;;;2.40;1.27;;;;;;;;;;4991535;28;20441;-69
2023/03/29 10:00:40;;;;;;;0.50;0.40;;;;;;;;;;4984890;28;20458;-69
2023/03/29 10:03:07;;;;;;;0.90;0.90;;;;;;;;;;4970911;28;20478;-68
2023/03/29 10:05:36;;;;;;;0.93;0.87;;;;;;;;;;4971401;28;20458;-69
2023/03/29 10:08:13;;;;;;;0.50;0.40;;;;;;;;;;4972279;28;20446;-69
2023/03/29 10:10:41;;;;;;;0.63;0.57;;;;;;;;;;4971648;28;20436;-68
2023/03/29 10:13:13;;;;;;;0.50;0.40;;;;;;;;;;4972265;28;20457;-69
2023/03/29 10:15:40;;;;;;;0.60;0.50;;;;;;;;;;4971277;28;20797;-68
2023/03/29 10:18:09;;;;;;;0.70;0.60;;;;;;;;;;4971849;28;20458;-69
2023/03/29 10:20:37;;;;;;;0.80;0.67;;;;;;;;;;4971523;28;20560;-69
2023/03/29 10:23:06;;;;;;;0.60;0.50;;;;;;;;;;4989346;28;20468;-69
2023/03/29 10:25:34;;;;;;;0.50;0.40;;;;;;;;;;4990722;28;20971;-69
2023/03/29 10:28:06;;;;;;;0.60;0.50;;;;;;;;;;4991539;28;20445;-68
2023/03/29 10:30:36;;;;;;;0.50;0.40;;;;;;;;;;4990623;28;20437;-68
2023/03/29 10:33:03;;;;;;;0.50;0.40;;;;;;;;;;4991161;28;20920;-68
2023/03/29 10:35:33;;;;;;;0.50;0.40;;;;;;;;;;4990629;28;20445;-68
2023/03/29 10:38:00;;;;;;;0.60;0.50;;;;;;;;;;4990993;28;20507;-68
2023/03/29 10:40:29;;;;;;;0.50;0.43;;;;;;;;;;4971233;28;20836;-67
2023/03/29 10:42:59;;;;;;;0.50;0.40;;;;;;;;;;4971049;28;20539;-69
2023/03/29 10:45:28;;;;;;;0.60;0.50;;;;;;;;;;4969504;28;20449;-68
2023/03/29 10:47:56;;;;;;;1.80;1.07;;;;;;;;;;4961642;28;20834;-69
2023/03/29 10:50:23;;;;;;;0.50;0.40;;;;;;;;;;4966515;28;21102;-68
2023/03/29 10:52:51;;;;;;;0.50;0.40;;;;;;;;;;4963104;28;20470;-69
2023/03/29 10:55:18;;;;;;;0.70;0.70;;;;;;;;;;4962165;28;20454;-68
2023/03/29 10:57:50;;;;;;;0.60;0.50;;;;;;;;;;4962263;28;20532;-68
2023/03/29 11:00:18;;;;;;;0.50;0.50;;;;;;;;;;4969988;28;20457;-68
2023/03/29 11:02:57;;;;;;;0.50;0.40;;;;;;;;;;4972919;28;20457;-69
2023/03/29 11:05:29;;;;;;;0.50;0.37;;;;;;;;;;4972820;28;20473;-67
2023/03/29 11:08:03;;;;;;;0.60;0.50;;;;;;;;;;4974618;28;20438;-67
2023/03/29 11:10:35;;;;;;;0.83;0.50;;;;;;;;;;4973478;28;20442;-66
2023/03/29 11:13:04;;;;;;;0.50;0.40;;;;;;;;;;4974127;28;20461;-69
2023/03/29 11:15:37;;;;;;;0.60;0.50;;;;;;;;;;4975899;28;20465;-69
2023/03/29 11:18:14;;;;;;;0.60;0.50;;;;;;;;;;4993231;28;20461;-68
2023/03/29 11:20:45;;;;;;;0.50;0.40;;;;;;;;;;4954127;28;20462;-68
2023/03/29 11:23:22;;;;;;;0.93;0.70;;;;;;;;;;4955111;28;20447;-67
2023/03/29 11:25:54;;;;;;;0.50;0.40;;;;;;;;;;4972739;28;20449;-70
2023/03/29 11:28:24;;;;;;;0.70;0.70;;;;;;;;;;4974582;28;20446;-67
2023/03/29 11:30:54;;;;;;;0.67;0.50;;;;;;;;;;4976732;28;20452;-68
2023/03/29 11:33:30;;;;;;;0.50;0.40;;;;;;;;;;4975159;28;20438;-68
2023/03/29 11:36:02;;;;;;;0.50;0.40;;;;;;;;;;4974338;28;20525;-68
2023/03/29 11:38:32;;;;;;;0.50;0.40;;;;;;;;;;4973760;28;20438;-68
2023/03/29 11:41:02;;;;;;;0.60;0.50;;;;;;;;;;4973787;28;20450;-68
2023/03/29 11:43:31;;;;;;;0.50;0.40;;;;;;;;;;4972800;28;20528;-68
2023/03/29 11:46:01;;;;;;;1.13;1.10;;;;;;;;;;4963633;28;20454;-71
2023/03/29 11:48:33;;;;;;;0.60;0.50;;;;;;;;;;4958886;28;20462;-70
2023/03/29 11:51:04;;;;;;;0.67;0.60;;;;;;;;;;4973765;28;20448;-68
2023/03/29 11:53:34;;;;;;;0.50;0.40;;;;;;;;;;4973421;28;20452;-68
2023/03/29 11:56:05;;;;;;;0.70;0.67;;;;;;;;;;4974392;28;20442;-67
2023/03/29 11:58:34;;;;;;;0.50;0.40;;;;;;;;;;4962675;28;20442;-67
2023/03/29 12:01:04;;;;;;;0.80;0.60;;;;;;;;;;4974287;28;20442;-69
2023/03/29 12:03:38;;;;;;;0.50;0.40;;;;;;;;;;4954991;28;20464;-68
2023/03/29 12:06:08;;;;;;;0.70;0.50;;;;;;;;;;4993481;28;20487;-68
2023/03/29 12:08:37;;;;;;;0.50;0.47;;;;;;;;;;4973609;28;20449;-68
2023/03/29 12:11:07;;;;;;;0.50;0.40;;;;;;;;;;4974057;28;20944;-67
2023/03/29 12:13:37;;;;;;;0.50;0.40;;;;;;;;;;4967769;28;20450;-67
2023/03/29 12:16:08;;;;;;;0.60;0.50;;;;;;;;;;4973572;28;20434;-68
2023/03/29 12:18:40;;;;;;;0.50;0.40;;;;;;;;;;4973439;28;20425;-68
2023/03/29 12:21:10;;;;;;;0.70;0.60;;;;;;;;;;4972483;28;20465;-68
2023/03/29 12:23:37;;;;;;;0.50;0.40;;;;;;;;;;4972987;28;20720;-67
2023/03/29 12:26:07;;;;;;;0.83;0.50;;;;;;;;;;4973804;28;20434;-67
2023/03/29 12:28:57;;;;;;;0.60;0.50;;;;;;;;;;4972751;28;20504;-68
2023/03/29 12:31:27;;;;;;;0.50;0.40;;;;;;;;;;4973130;28;20430;-68
2023/03/29 12:34:06;;;;;;;0.60;0.50;;;;;;;;;;4974024;28;20783;-67
2023/03/29 12:36:51;;;;;;;0.60;0.50;;;;;;;;;;4972931;28;20446;-68
2023/03/29 12:39:19;;;;;;;0.50;0.40;;;;;;;;;;4992037;28;20437;-67
2023/03/29 12:41:50;;;;;;;0.60;0.50;;;;;;;;;;4975270;28;20867;-67
2023/03/29 12:44:18;;;;;;;0.50;0.40;;;;;;;;;;4972575;28;20521;-66
2023/03/29 12:46:45;;;;;;;0.50;0.40;;;;;;;;;;4973048;28;20446;-67
2023/03/29 12:49:25;;;;;;;0.60;0.40;;;;;;;;;;4973538;28;20477;-67
2023/03/29 12:51:52;;;;;;;0.60;0.50;;;;;;;;;;4972821;28;20477;-67
2023/03/29 12:54:21;;;;;;;0.60;0.40;;;;;;;;;;4983596;28;20465;-67
2023/03/29 12:56:56;;;;;;;0.50;0.40;;;;;;;;;;4992758;28;20437;-68
2023/03/29 12:59:27;;;;;;;0.50;0.40;;;;;;;;;;4991920;28;20437;-68
2023/03/29 13:01:59;;;;;;;0.50;0.40;;;;;;;;;;4975927;28;20810;-68
2023/03/29 13:04:37;;;;;;;0.60;0.47;;;;;;;;;;4971951;28;20508;-68
2023/03/29 13:07:04;;;;;;;0.70;0.60;;;;;;;;;;4973166;28;20445;-68
2023/03/29 13:09:34;;;;;;;0.50;0.40;;;;;;;;;;4970746;28;20466;-69
2023/03/29 13:12:05;;;;;;;1.37;0.77;;;;;;;;;;4972806;28;20454;-68
2023/03/29 13:14:35;;;;;;;0.50;0.40;;;;;;;;;;4971279;28;20446;-68
2023/03/29 13:17:02;;;;;;;0.70;0.70;;;;;;;;;;4972625;28;20517;-71
